Time;durP1;ratioP1;P1;durP2;ratioP2;P2;SDS_P1;SDS_P2;PMS_P1;PMS_P2;Temp;Humidity;BMP_temperature;BMP_pressure;BME280_temperature;BME280_humidity;BME280_pressure;Samples;Min_cycle;Max_cycle;Signal;HPM_P1;HPM_P2
2022/03/04 00:01:12;;;;;;;7.80;6.40;;;;;;;;;;5071131;28;20942;-16
2022/03/04 00:03:39;;;;;;;9.80;6.67;;;;;;;;;;5071229;28;20669;-16
2022/03/04 00:06:06;;;;;;;9.07;6.97;;;;;;;;;;5071045;28;20229;-16
2022/03/04 00:08:33;;;;;;;8.67;6.77;;;;;;;;;;5071334;28;20229;-16
2022/03/04 00:11:02;;;;;;;10.10;6.90;;;;;;;;;;5070755;28;20233;-16
2022/03/04 00:13:32;;;;;;;9.17;6.97;;;;;;;;;;5071083;28;20229;-16
2022/03/04 00:15:59;;;;;;;10.00;7.20;;;;;;;;;;5071203;28;20245;-16
2022/03/04 00:18:26;;;;;;;9.13;7.10;;;;;;;;;;5071061;28;20249;-16
2022/03/04 00:20:54;;;;;;;8.47;6.70;;;;;;;;;;5070252;28;20993;-16
2022/03/04 00:23:21;;;;;;;8.57;7.07;;;;;;;;;;5070711;28;20329;-16
2022/03/04 00:25:48;;;;;;;8.43;6.87;;;;;;;;;;5071096;28;20232;-16
2022/03/04 00:28:15;;;;;;;8.57;6.80;;;;;;;;;;5070949;28;20623;-16
2022/03/04 00:30:42;;;;;;;7.80;6.37;;;;;;;;;;5070594;28;20233;-16
2022/03/04 00:33:09;;;;;;;7.67;6.30;;;;;;;;;;5070391;28;20228;-16
2022/03/04 00:35:36;;;;;;;8.57;6.60;;;;;;;;;;5071240;28;20229;-16
2022/03/04 00:38:03;;;;;;;7.50;6.30;;;;;;;;;;5071204;28;20229;-16
2022/03/04 00:40:30;;;;;;;8.70;6.70;;;;;;;;;;5070931;28;20221;-16
2022/03/04 00:42:57;;;;;;;9.37;7.10;;;;;;;;;;5070241;28;20287;-16
2022/03/04 00:45:24;;;;;;;9.10;7.27;;;;;;;;;;5070668;28;20718;-16
2022/03/04 00:47:51;;;;;;;9.37;7.10;;;;;;;;;;5073080;28;20230;-16
2022/03/04 00:50:18;;;;;;;10.33;7.37;;;;;;;;;;5074145;28;20948;-16
2022/03/04 00:52:45;;;;;;;9.90;6.73;;;;;;;;;;5074130;28;20228;-16
2022/03/04 00:55:12;;;;;;;8.77;6.40;;;;;;;;;;5073449;28;20974;-16
2022/03/04 00:57:39;;;;;;;9.80;7.33;;;;;;;;;;5074138;28;20248;-16
2022/03/04 01:00:06;;;;;;;9.57;7.40;;;;;;;;;;5073962;28;20226;-16
2022/03/04 01:02:33;;;;;;;11.20;7.00;;;;;;;;;;5073938;28;20225;-16
2022/03/04 01:05:00;;;;;;;9.17;6.70;;;;;;;;;;5073262;28;20257;-16
2022/03/04 01:07:27;;;;;;;9.50;7.30;;;;;;;;;;5074139;28;20217;-16
2022/03/04 01:09:54;;;;;;;8.63;6.10;;;;;;;;;;5073770;28;20221;-16
2022/03/04 01:12:21;;;;;;;8.23;6.43;;;;;;;;;;5073435;28;20990;-16
2022/03/04 01:14:51;;;;;;;8.07;6.40;;;;;;;;;;5073276;28;20279;-16
2022/03/04 01:17:18;;;;;;;9.37;6.93;;;;;;;;;;5073015;28;20233;-16
2022/03/04 01:19:45;;;;;;;9.63;6.87;;;;;;;;;;5073867;28;20217;-16
2022/03/04 01:22:12;;;;;;;8.53;6.97;;;;;;;;;;5073300;28;20248;-16
2022/03/04 01:24:39;;;;;;;8.53;6.60;;;;;;;;;;5073915;28;20256;-16
2022/03/04 01:27:06;;;;;;;8.20;6.53;;;;;;;;;;5070535;28;20716;-16
2022/03/04 01:29:33;;;;;;;8.63;7.10;;;;;;;;;;5075246;28;20607;-16
2022/03/04 01:32:00;;;;;;;8.73;7.20;;;;;;;;;;5069416;28;20234;-16
2022/03/04 01:34:27;;;;;;;9.67;6.80;;;;;;;;;;5077162;28;20233;-16
2022/03/04 01:36:54;;;;;;;8.77;6.90;;;;;;;;;;5073149;28;20229;-16
2022/03/04 01:39:21;;;;;;;8.87;7.10;;;;;;;;;;5090778;28;20726;-16
2022/03/04 01:41:48;;;;;;;8.23;6.67;;;;;;;;;;5072751;28;20229;-16
2022/03/04 01:44:16;;;;;;;9.73;7.23;;;;;;;;;;5073399;28;20221;-16
2022/03/04 01:46:43;;;;;;;8.23;6.23;;;;;;;;;;5073536;28;20316;-16
2022/03/04 01:49:10;;;;;;;7.67;6.47;;;;;;;;;;5072925;28;20230;-16
2022/03/04 01:51:37;;;;;;;10.67;6.63;;;;;;;;;;5073101;28;20238;-16
2022/03/04 01:54:04;;;;;;;8.17;7.00;;;;;;;;;;5073347;28;20225;-16
2022/03/04 01:56:31;;;;;;;8.83;7.07;;;;;;;;;;5073290;28;20237;-16
2022/03/04 01:58:58;;;;;;;8.80;6.93;;;;;;;;;;5072578;28;21022;-16
2022/03/04 02:01:25;;;;;;;9.37;6.80;;;;;;;;;;5073077;28;20230;-16
2022/03/04 02:03:53;;;;;;;10.20;7.07;;;;;;;;;;5072459;28;20264;-16
2022/03/04 02:06:20;;;;;;;8.40;6.80;;;;;;;;;;5060355;28;20701;-16
2022/03/04 02:08:47;;;;;;;9.17;7.10;;;;;;;;;;5052751;28;20230;-16
2022/03/04 02:11:14;;;;;;;8.40;6.77;;;;;;;;;;5069150;28;20247;-16
2022/03/04 02:13:42;;;;;;;8.90;6.90;;;;;;;;;;5072941;28;20225;-16
2022/03/04 02:16:09;;;;;;;7.47;6.23;;;;;;;;;;5073070;28;20234;-16
2022/03/04 02:18:36;;;;;;;8.50;6.77;;;;;;;;;;5072999;28;20284;-16
2022/03/04 02:21:04;;;;;;;8.90;6.70;;;;;;;;;;5079185;28;20234;-16
2022/03/04 02:23:31;;;;;;;8.63;6.90;;;;;;;;;;5092442;28;20263;-16
2022/03/04 02:25:59;;;;;;;8.40;6.63;;;;;;;;;;5092985;28;20228;-16
2022/03/04 02:28:25;;;;;;;10.30;7.33;;;;;;;;;;5092930;28;20594;-15
2022/03/04 02:30:52;;;;;;;8.93;6.60;;;;;;;;;;5085981;28;20699;-16
2022/03/04 02:33:19;;;;;;;8.67;6.63;;;;;;;;;;5072156;28;20947;-16
2022/03/04 02:35:46;;;;;;;8.10;6.60;;;;;;;;;;5072685;28;20225;-16
2022/03/04 02:38:13;;;;;;;9.07;6.80;;;;;;;;;;5072663;28;20224;-16
2022/03/04 02:40:40;;;;;;;8.93;6.43;;;;;;;;;;5072746;28;20229;-16
2022/03/04 02:43:07;;;;;;;8.53;6.40;;;;;;;;;;5079568;28;20236;-16
2022/03/04 02:45:34;;;;;;;9.57;6.77;;;;;;;;;;5088189;28;20256;-16
2022/03/04 02:48:02;;;;;;;9.43;7.17;;;;;;;;;;5072245;28;20225;-16
2022/03/04 02:50:29;;;;;;;7.67;6.57;;;;;;;;;;5072361;28;20226;-16
2022/03/04 02:52:56;;;;;;;8.67;7.00;;;;;;;;;;5072594;28;20247;-16
2022/03/04 02:55:23;;;;;;;7.93;6.83;;;;;;;;;;5071558;28;21142;-16
2022/03/04 02:57:50;;;;;;;8.27;6.50;;;;;;;;;;5070646;28;20222;-16
2022/03/04 03:00:17;;;;;;;8.03;6.57;;;;;;;;;;5072101;28;20221;-15
2022/03/04 03:02:44;;;;;;;8.83;6.50;;;;;;;;;;5071958;28;20225;-16
2022/03/04 03:05:11;;;;;;;9.40;6.70;;;;;;;;;;5071392;28;20243;-16
2022/03/04 03:07:38;;;;;;;8.67;6.93;;;;;;;;;;5072357;28;20967;-16
2022/03/04 03:10:05;;;;;;;8.77;6.63;;;;;;;;;;5071453;28;20233;-16
2022/03/04 03:12:32;;;;;;;8.87;6.50;;;;;;;;;;5072068;28;20248;-16
2022/03/04 03:14:59;;;;;;;9.20;6.30;;;;;;;;;;5072018;28;20233;-16
2022/03/04 03:17:26;;;;;;;9.17;6.70;;;;;;;;;;5071230;28;20226;-16
2022/03/04 03:19:53;;;;;;;8.90;6.40;;;;;;;;;;5071518;28;20231;-16
2022/03/04 03:22:20;;;;;;;8.27;6.30;;;;;;;;;;5072230;22;20252;-17
2022/03/04 03:24:47;;;;;;;8.67;6.97;;;;;;;;;;5051394;28;20238;-17
2022/03/04 03:27:14;;;;;;;9.47;6.83;;;;;;;;;;5051441;28;20233;-17
2022/03/04 03:29:41;;;;;;;8.60;6.50;;;;;;;;;;5051681;28;20979;-17
2022/03/04 03:32:10;;;;;;;8.67;6.57;;;;;;;;;;5051461;28;20241;-17
2022/03/04 03:34:37;;;;;;;7.20;6.10;;;;;;;;;;5051604;28;20230;-17
2022/03/04 03:37:04;;;;;;;8.60;6.40;;;;;;;;;;5051414;28;20230;-17
2022/03/04 03:39:31;;;;;;;7.27;6.00;;;;;;;;;;5046706;28;20233;-17
2022/03/04 03:41:58;;;;;;;8.10;6.43;;;;;;;;;;5031707;28;20230;-17
2022/03/04 03:44:25;;;;;;;9.57;6.57;;;;;;;;;;5031612;28;20230;-17
2022/03/04 03:46:52;;;;;;;8.70;6.37;;;;;;;;;;5036888;28;20312;-17
2022/03/04 03:49:19;;;;;;;9.20;6.77;;;;;;;;;;5050409;28;20295;-17
2022/03/04 03:51:46;;;;;;;7.73;6.27;;;;;;;;;;5051450;28;20959;-17
2022/03/04 03:54:13;;;;;;;8.67;6.70;;;;;;;;;;5051388;28;20234;-17
2022/03/04 03:56:40;;;;;;;8.47;5.97;;;;;;;;;;5051590;28;20978;-17
2022/03/04 03:59:07;;;;;;;8.87;6.30;;;;;;;;;;5050994;28;20377;-17
2022/03/04 04:01:34;;;;;;;8.67;6.50;;;;;;;;;;5050951;28;20972;-17
2022/03/04 04:04:01;;;;;;;8.03;6.47;;;;;;;;;;5051594;28;20238;-17
2022/03/04 04:06:28;;;;;;;9.37;7.10;;;;;;;;;;5050025;28;20222;-17
2022/03/04 04:08:55;;;;;;;8.87;6.60;;;;;;;;;;5051378;28;20226;-17
2022/03/04 04:11:22;;;;;;;8.20;5.97;;;;;;;;;;5050176;28;20384;-17
2022/03/04 04:13:49;;;;;;;8.33;6.60;;;;;;;;;;5051516;28;20238;-17
2022/03/04 04:16:16;;;;;;;9.00;6.00;;;;;;;;;;5051383;28;20226;-17
2022/03/04 04:18:43;;;;;;;8.23;6.33;;;;;;;;;;5051523;28;20226;-16
2022/03/04 04:21:10;;;;;;;8.23;6.30;;;;;;;;;;5050442;28;20636;-17
2022/03/04 04:23:37;;;;;;;7.80;5.50;;;;;;;;;;5034731;28;20227;-17
2022/03/04 04:26:06;;;;;;;8.50;6.27;;;;;;;;;;5034378;28;20237;-17
2022/03/04 04:28:34;;;;;;;8.23;6.07;;;;;;;;;;5034401;28;20226;-17
2022/03/04 04:31:02;;;;;;;8.27;5.67;;;;;;;;;;5042336;28;20226;-17
2022/03/04 04:33:31;;;;;;;8.23;6.17;;;;;;;;;;5054160;28;20376;-17
2022/03/04 04:35:58;;;;;;;7.43;5.50;;;;;;;;;;5054294;28;20218;-17
2022/03/04 04:38:25;;;;;;;7.63;6.13;;;;;;;;;;5054401;28;20217;-17
2022/03/04 04:40:52;;;;;;;7.30;5.37;;;;;;;;;;5053985;28;20228;-17
2022/03/04 04:43:19;;;;;;;8.00;5.70;;;;;;;;;;5053296;28;20705;-17
2022/03/04 04:45:46;;;;;;;8.80;5.87;;;;;;;;;;5054101;28;20606;-17
2022/03/04 04:48:13;;;;;;;8.87;6.47;;;;;;;;;;5054225;28;20230;-17
2022/03/04 04:50:40;;;;;;;8.20;5.90;;;;;;;;;;5054199;28;20222;-17
2022/03/04 04:53:06;;;;;;;7.50;5.93;;;;;;;;;;5053836;28;20272;-17
2022/03/04 04:55:33;;;;;;;7.63;6.13;;;;;;;;;;5053368;28;21045;-17
2022/03/04 04:58:00;;;;;;;7.67;5.53;;;;;;;;;;5053780;28;20590;-16
2022/03/04 05:00:27;;;;;;;7.80;5.80;;;;;;;;;;5053827;28;20241;-17
2022/03/04 05:02:55;;;;;;;7.53;5.77;;;;;;;;;;5052546;28;20234;-17
2022/03/04 05:05:22;;;;;;;8.37;5.93;;;;;;;;;;5053174;28;20748;-16
2022/03/04 05:07:49;;;;;;;7.80;6.10;;;;;;;;;;5053621;28;20309;-17
2022/03/04 05:10:16;;;;;;;9.53;5.67;;;;;;;;;;5053657;28;20230;-17
2022/03/04 05:12:43;;;;;;;8.30;5.70;;;;;;;;;;5053928;28;21068;-17
2022/03/04 05:15:10;;;;;;;6.97;5.33;;;;;;;;;;5053983;28;20225;-17
2022/03/04 05:17:38;;;;;;;7.70;5.90;;;;;;;;;;5053125;28;20337;-17
2022/03/04 05:20:05;;;;;;;8.70;5.73;;;;;;;;;;5053706;28;20272;-17
2022/03/04 05:22:32;;;;;;;7.37;5.67;;;;;;;;;;5052071;28;20621;-17
2022/03/04 05:24:59;;;;;;;8.93;5.73;;;;;;;;;;5053569;28;20226;-17
2022/03/04 05:27:26;;;;;;;8.40;6.10;;;;;;;;;;5052982;28;20230;-17
2022/03/04 05:29:53;;;;;;;8.17;5.60;;;;;;;;;;5053489;28;20233;-17
2022/03/04 05:32:20;;;;;;;8.57;6.23;;;;;;;;;;5053075;28;20226;-17
2022/03/04 05:34:47;;;;;;;7.77;5.47;;;;;;;;;;5053485;28;20206;-17
2022/03/04 05:37:14;;;;;;;7.27;5.90;;;;;;;;;;5053151;28;20222;-17
2022/03/04 05:39:41;;;;;;;8.50;6.10;;;;;;;;;;5065153;28;20230;-17
2022/03/04 05:42:07;;;;;;;7.70;5.60;;;;;;;;;;5073373;28;20324;-17
2022/03/04 05:44:35;;;;;;;7.33;5.77;;;;;;;;;;5073326;28;20221;-17
2022/03/04 05:47:02;;;;;;;7.67;5.60;;;;;;;;;;5056787;28;20735;-17
2022/03/04 05:49:29;;;;;;;6.63;5.37;;;;;;;;;;5052538;28;20233;-17
2022/03/04 05:51:56;;;;;;;8.33;5.77;;;;;;;;;;5053001;28;20605;-17
2022/03/04 05:54:24;;;;;;;6.77;5.23;;;;;;;;;;5053115;28;20214;-17
2022/03/04 05:56:51;;;;;;;7.33;5.83;;;;;;;;;;5053247;28;20217;-17
2022/03/04 05:59:18;;;;;;;7.93;5.60;;;;;;;;;;5052886;28;20230;-17
2022/03/04 06:01:45;;;;;;;7.90;5.43;;;;;;;;;;5052417;28;20236;-17
2022/03/04 06:04:12;;;;;;;8.07;5.70;;;;;;;;;;5052988;28;20230;-17
2022/03/04 06:06:39;;;;;;;9.07;6.43;;;;;;;;;;5052861;28;20230;-17
2022/03/04 06:09:06;;;;;;;8.47;6.33;;;;;;;;;;5052879;28;20229;-17
2022/03/04 06:11:33;;;;;;;7.43;5.53;;;;;;;;;;5050979;28;20238;-17
2022/03/04 06:14:02;;;;;;;7.73;5.53;;;;;;;;;;5052785;28;20218;-17
2022/03/04 06:16:29;;;;;;;8.10;5.93;;;;;;;;;;5052413;28;20241;-17
2022/03/04 06:18:55;;;;;;;10.33;6.67;;;;;;;;;;5052471;28;20237;-17
2022/03/04 06:21:22;;;;;;;8.83;6.03;;;;;;;;;;5052055;28;20720;-17
2022/03/04 06:23:50;;;;;;;7.87;5.97;;;;;;;;;;5051760;28;20272;-17
2022/03/04 06:26:17;;;;;;;7.70;5.40;;;;;;;;;;5052486;28;20230;-17
2022/03/04 06:28:44;;;;;;;6.40;4.73;;;;;;;;;;5052453;28;20233;-17
2022/03/04 06:31:11;;;;;;;7.77;5.53;;;;;;;;;;5052416;28;20238;-17
2022/03/04 06:33:40;;;;;;;8.07;5.70;;;;;;;;;;5052056;28;21157;-17
2022/03/04 06:36:07;;;;;;;7.27;5.50;;;;;;;;;;5052611;28;20240;-17
2022/03/04 06:38:34;;;;;;;8.87;5.93;;;;;;;;;;5052454;28;20258;-17
2022/03/04 06:41:03;;;;;;;7.70;5.97;;;;;;;;;;5052570;28;20309;-19
2022/03/04 06:43:30;;;;;;;7.70;5.80;;;;;;;;;;5052006;28;20229;-18
2022/03/04 06:45:57;;;;;;;8.97;5.97;;;;;;;;;;5050974;28;20237;-18
2022/03/04 06:48:25;;;;;;;8.43;6.30;;;;;;;;;;5052200;28;20222;-18
2022/03/04 06:50:52;;;;;;;8.60;6.20;;;;;;;;;;5052630;28;20229;-19
2022/03/04 06:53:19;;;;;;;9.00;5.87;;;;;;;;;;5050918;28;20959;-18
2022/03/04 06:55:46;;;;;;;7.50;6.00;;;;;;;;;;5051473;28;21053;-19
2022/03/04 06:58:13;;;;;;;7.80;5.97;;;;;;;;;;5052271;28;20260;-19
2022/03/04 07:00:41;;;;;;;7.70;5.70;;;;;;;;;;5052299;28;20230;-19
2022/03/04 07:03:08;;;;;;;8.63;6.03;;;;;;;;;;5051955;28;20313;-19
2022/03/04 07:05:35;;;;;;;7.90;6.00;;;;;;;;;;5052091;28;20288;-18
2022/03/04 07:08:03;;;;;;;8.27;6.10;;;;;;;;;;5051332;28;20237;-19
2022/03/04 07:10:30;;;;;;;8.23;6.07;;;;;;;;;;5051924;28;21044;-19
2022/03/04 07:12:57;;;;;;;9.00;6.03;;;;;;;;;;5051819;28;20238;-18
2022/03/04 07:15:24;;;;;;;8.47;5.97;;;;;;;;;;5051724;28;20233;-19
2022/03/04 07:17:51;;;;;;;7.57;5.67;;;;;;;;;;5051298;28;20241;-19
2022/03/04 07:20:18;;;;;;;9.53;6.70;;;;;;;;;;5051912;28;20234;-19
2022/03/04 07:22:45;;;;;;;8.27;5.97;;;;;;;;;;5051206;28;20249;-19
2022/03/04 07:25:12;;;;;;;7.97;6.10;;;;;;;;;;5051809;28;20233;-18
2022/03/04 07:27:39;;;;;;;8.10;5.73;;;;;;;;;;5051627;28;21017;-19
2022/03/04 07:30:06;;;;;;;8.50;6.33;;;;;;;;;;5051050;28;20229;-19
2022/03/04 07:32:33;;;;;;;9.90;6.70;;;;;;;;;;5051517;28;20237;-19
2022/03/04 07:35:00;;;;;;;9.77;7.03;;;;;;;;;;5051345;28;20222;-19
2022/03/04 07:37:27;;;;;;;9.00;7.07;;;;;;;;;;5051589;28;20262;-19
2022/03/04 07:39:54;;;;;;;8.23;6.17;;;;;;;;;;5050869;28;20265;-19
2022/03/04 07:42:22;;;;;;;10.57;6.70;;;;;;;;;;5051507;28;20222;-19
2022/03/04 07:44:49;;;;;;;10.10;7.03;;;;;;;;;;5051526;28;20689;-19
2022/03/04 07:47:16;;;;;;;9.80;6.50;;;;;;;;;;5051681;28;21033;-19
2022/03/04 07:49:43;;;;;;;9.13;6.43;;;;;;;;;;5051736;28;20236;-19
2022/03/04 07:52:10;;;;;;;8.63;6.60;;;;;;;;;;5050942;28;20232;-19
2022/03/04 07:54:37;;;;;;;9.67;7.13;;;;;;;;;;5051359;28;20760;-19
2022/03/04 07:57:04;;;;;;;9.57;6.83;;;;;;;;;;5054436;28;21099;-19
2022/03/04 07:59:31;;;;;;;8.83;6.63;;;;;;;;;;5054884;28;20229;-19
2022/03/04 08:01:58;;;;;;;10.87;7.17;;;;;;;;;;5061210;28;20684;-19
2022/03/04 08:04:25;;;;;;;10.53;7.07;;;;;;;;;;5075062;28;20330;-18
2022/03/04 08:06:52;;;;;;;9.33;6.80;;;;;;;;;;5075234;28;20324;-19
2022/03/04 08:09:19;;;;;;;10.23;6.97;;;;;;;;;;5074813;28;20236;-19
2022/03/04 08:11:47;;;;;;;10.20;6.73;;;;;;;;;;5074933;28;20228;-18
2022/03/04 08:14:14;;;;;;;8.93;6.70;;;;;;;;;;5056554;28;20333;-19
2022/03/04 08:16:41;;;;;;;9.07;6.83;;;;;;;;;;5054572;28;20234;-19
2022/03/04 08:19:08;;;;;;;11.80;7.33;;;;;;;;;;5054651;28;20230;-18
2022/03/04 08:21:35;;;;;;;9.60;7.17;;;;;;;;;;5054185;28;20246;-19
2022/03/04 08:24:02;;;;;;;10.20;6.77;;;;;;;;;;5053914;28;20234;-19
2022/03/04 08:26:29;;;;;;;10.37;6.57;;;;;;;;;;5054569;28;20701;-19
2022/03/04 08:29:00;;;;;;;10.07;7.10;;;;;;;;;;5054360;28;20345;-19
2022/03/04 08:31:27;;;;;;;11.10;7.70;;;;;;;;;;5054583;28;20226;-19
2022/03/04 08:33:54;;;;;;;9.90;7.17;;;;;;;;;;5053898;28;20238;-19
2022/03/04 08:36:21;;;;;;;10.73;7.50;;;;;;;;;;5053628;28;20236;-19
2022/03/04 08:38:47;;;;;;;10.33;7.73;;;;;;;;;;5054178;28;20230;-19
2022/03/04 08:41:15;;;;;;;9.50;7.00;;;;;;;;;;5054589;28;20262;-19
2022/03/04 08:43:42;;;;;;;10.50;7.97;;;;;;;;;;5054066;28;20879;-17
2022/03/04 08:46:12;;;;;;;10.80;7.20;;;;;;;;;;5052872;28;20237;-19
2022/03/04 08:48:39;;;;;;;10.63;7.33;;;;;;;;;;5054000;28;20230;-19
2022/03/04 08:51:06;;;;;;;11.03;7.77;;;;;;;;;;5054113;28;20230;-19
2022/03/04 08:53:33;;;;;;;10.50;7.40;;;;;;;;;;5053867;28;20242;-19
2022/03/04 08:56:00;;;;;;;11.03;7.77;;;;;;;;;;5053823;28;20230;-19
2022/03/04 08:58:27;;;;;;;10.27;7.67;;;;;;;;;;5052930;28;20259;-19
2022/03/04 09:00:55;;;;;;;11.17;7.37;;;;;;;;;;5053802;28;20233;-19
2022/03/04 09:03:22;;;;;;;12.07;8.50;;;;;;;;;;5053775;28;20236;-19
2022/03/04 09:05:49;;;;;;;10.87;7.60;;;;;;;;;;5053862;28;20265;-19
2022/03/04 09:08:16;;;;;;;10.53;8.10;;;;;;;;;;5052702;28;20245;-19
2022/03/04 09:10:44;;;;;;;10.00;7.53;;;;;;;;;;5053768;28;20226;-19
2022/03/04 09:13:11;;;;;;;12.33;8.07;;;;;;;;;;5053887;28;20736;-19
2022/03/04 09:15:38;;;;;;;9.93;7.73;;;;;;;;;;5053634;28;20728;-19
2022/03/04 09:18:05;;;;;;;10.50;8.17;;;;;;;;;;5053521;28;20240;-19
2022/03/04 09:20:33;;;;;;;12.47;8.47;;;;;;;;;;5034088;28;21025;-19
2022/03/04 09:23:00;;;;;;;12.50;8.47;;;;;;;;;;5032744;28;20848;-18
2022/03/04 09:25:27;;;;;;;10.13;8.17;;;;;;;;;;5033437;28;20235;-19
2022/03/04 09:27:54;;;;;;;10.27;7.60;;;;;;;;;;5033652;28;20242;-19
2022/03/04 09:30:21;;;;;;;10.83;8.13;;;;;;;;;;5050023;28;20229;-19
2022/03/04 09:32:48;;;;;;;12.13;8.10;;;;;;;;;;5053357;28;20252;-19
2022/03/04 09:35:15;;;;;;;12.17;8.53;;;;;;;;;;5053437;28;20249;-19
2022/03/04 09:37:48;;;;;;;11.77;8.50;;;;;;;;;;5053343;28;20222;-18
2022/03/04 09:40:15;;;;;;;12.63;8.57;;;;;;;;;;5052903;28;20218;-19
2022/03/04 09:42:42;;;;;;;11.27;8.20;;;;;;;;;;5053294;28;20233;-19
2022/03/04 09:45:09;;;;;;;12.57;8.23;;;;;;;;;;5052928;28;20317;-19
2022/03/04 09:47:36;;;;;;;12.77;8.70;;;;;;;;;;5052594;28;20236;-19
2022/03/04 09:50:03;;;;;;;12.83;8.47;;;;;;;;;;5052978;28;20230;-19
2022/03/04 09:52:33;;;;;;;12.20;8.83;;;;;;;;;;5052413;28;20260;-19
2022/03/04 09:55:00;;;;;;;11.40;8.00;;;;;;;;;;5052998;28;20233;-19
2022/03/04 09:57:27;;;;;;;11.57;8.50;;;;;;;;;;5052913;28;20297;-19
2022/03/04 09:59:54;;;;;;;11.23;8.00;;;;;;;;;;5052856;28;20697;-19
2022/03/04 10:02:23;;;;;;;11.37;8.20;;;;;;;;;;5052223;28;20272;-19
2022/03/04 10:04:50;;;;;;;11.57;8.10;;;;;;;;;;5052991;28;20697;-19
2022/03/04 10:07:21;;;;;;;12.60;8.50;;;;;;;;;;5052913;28;20234;-19
2022/03/04 10:09:49;;;;;;;10.13;7.83;;;;;;;;;;5052762;28;20292;-19
2022/03/04 10:12:16;;;;;;;10.97;7.77;;;;;;;;;;5052196;28;20226;-19
2022/03/04 10:14:43;;;;;;;12.57;8.83;;;;;;;;;;5052226;28;20233;-19
2022/03/04 10:17:10;;;;;;;11.73;8.60;;;;;;;;;;5052597;28;20233;-19
2022/03/04 10:19:39;;;;;;;11.80;8.87;;;;;;;;;;5052632;28;20222;-19
2022/03/04 10:22:06;;;;;;;12.27;8.70;;;;;;;;;;5052132;28;20238;-19
2022/03/04 10:24:33;;;;;;;11.60;8.77;;;;;;;;;;5052322;28;20596;-19
2022/03/04 10:27:00;;;;;;;10.87;8.07;;;;;;;;;;5052499;28;20233;-19
2022/03/04 10:29:33;;;;;;;11.07;8.70;;;;;;;;;;5052713;28;20218;-19
2022/03/04 10:32:10;;;;;;;12.53;8.13;;;;;;;;;;5052627;28;20367;-19
2022/03/04 10:34:40;;;;;;;11.47;7.87;;;;;;;;;;5052636;28;20238;-19
2022/03/04 10:37:07;;;;;;;12.57;9.07;;;;;;;;;;5051224;28;21043;-19
2022/03/04 10:39:34;;;;;;;11.27;7.80;;;;;;;;;;5052466;28;20317;-19
2022/03/04 10:42:01;;;;;;;10.77;8.00;;;;;;;;;;5052595;28;20230;-18
2022/03/04 10:44:29;;;;;;;11.90;8.33;;;;;;;;;;5052369;28;20234;-19
2022/03/04 10:46:56;;;;;;;11.60;8.40;;;;;;;;;;5051480;28;20238;-19
2022/03/04 10:49:24;;;;;;;12.23;8.33;;;;;;;;;;5052338;28;20341;-19
2022/03/04 10:51:51;;;;;;;11.67;7.97;;;;;;;;;;5051871;28;20644;-19
2022/03/04 10:54:18;;;;;;;12.60;8.37;;;;;;;;;;5052096;28;20242;-19
2022/03/04 10:56:45;;;;;;;11.20;8.10;;;;;;;;;;5052572;28;20248;-19
2022/03/04 10:59:12;;;;;;;12.00;7.43;;;;;;;;;;5051610;28;20226;-19
2022/03/04 11:01:39;;;;;;;10.60;7.93;;;;;;;;;;5051547;28;20226;-19
2022/03/04 11:04:07;;;;;;;10.67;7.63;;;;;;;;;;5051894;28;20234;-19
2022/03/04 11:06:33;;;;;;;9.67;7.40;;;;;;;;;;5051981;28;20230;-18
2022/03/04 11:09:00;;;;;;;12.60;8.17;;;;;;;;;;5058474;28;20221;-19
2022/03/04 11:11:27;;;;;;;12.00;7.93;;;;;;;;;;5072021;28;20233;-19
2022/03/04 11:13:54;;;;;;;11.27;7.67;;;;;;;;;;5072280;28;20237;-19
2022/03/04 11:16:21;;;;;;;10.40;7.37;;;;;;;;;;5061301;28;21072;-19
2022/03/04 11:18:48;;;;;;;10.70;7.83;;;;;;;;;;5051988;28;20276;-19
2022/03/04 11:21:15;;;;;;;11.67;7.40;;;;;;;;;;5068033;28;20236;-19
2022/03/04 11:23:42;;;;;;;11.00;7.97;;;;;;;;;;5071698;28;20659;-19
2022/03/04 11:26:09;;;;;;;10.20;7.40;;;;;;;;;;5071591;28;20762;-18
2022/03/04 11:28:36;;;;;;;10.03;7.53;;;;;;;;;;5070325;28;20225;-18
2022/03/04 11:31:06;;;;;;;10.17;7.53;;;;;;;;;;5062354;28;20233;-18
2022/03/04 11:33:33;;;;;;;10.83;7.90;;;;;;;;;;5051447;28;20248;-18
2022/03/04 11:36:00;;;;;;;13.03;7.73;;;;;;;;;;5051795;28;20240;-18
2022/03/04 11:38:27;;;;;;;9.53;7.27;;;;;;;;;;5051532;28;20224;-18
2022/03/04 11:40:54;;;;;;;17.93;8.33;;;;;;;;;;5051846;28;20639;-18
2022/03/04 11:43:41;;;;;;;9.23;7.10;;;;;;;;;;5031982;28;20238;-18
2022/03/04 11:46:08;;;;;;;12.10;7.97;;;;;;;;;;5040223;28;20226;-19
2022/03/04 11:48:35;;;;;;;9.37;7.60;;;;;;;;;;5051466;28;21023;-18
2022/03/04 11:51:02;;;;;;;10.37;7.77;;;;;;;;;;5051284;28;20226;-18
2022/03/04 11:53:29;;;;;;;10.43;8.10;;;;;;;;;;5050854;28;20245;-19
2022/03/04 11:55:56;;;;;;;10.47;7.47;;;;;;;;;;5051540;28;20225;-19
2022/03/04 11:58:23;;;;;;;11.77;7.97;;;;;;;;;;5051351;28;20222;-19
2022/03/04 12:00:50;;;;;;;11.10;8.43;;;;;;;;;;5051300;28;20234;-18
2022/03/04 12:03:17;;;;;;;13.17;8.10;;;;;;;;;;5050702;28;20230;-18
2022/03/04 12:05:44;;;;;;;10.27;7.77;;;;;;;;;;5051439;28;20308;-18
2022/03/04 12:08:11;;;;;;;12.47;8.57;;;;;;;;;;5051247;28;20226;-18
2022/03/04 12:10:38;;;;;;;10.93;8.07;;;;;;;;;;5051203;28;20236;-18
2022/03/04 12:13:05;;;;;;;11.70;7.70;;;;;;;;;;5051305;28;20768;-18
2022/03/04 12:15:32;;;;;;;11.23;8.00;;;;;;;;;;5050001;28;20246;-18
2022/03/04 12:18:02;;;;;;;11.67;7.93;;;;;;;;;;5051297;28;20978;-19
2022/03/04 12:20:29;;;;;;;11.00;8.30;;;;;;;;;;5050892;28;21018;-18
2022/03/04 12:22:56;;;;;;;10.43;7.43;;;;;;;;;;5050296;28;20337;-18
2022/03/04 12:25:23;;;;;;;11.57;7.40;;;;;;;;;;5050813;28;20240;-18
2022/03/04 12:27:50;;;;;;;10.47;7.50;;;;;;;;;;5051024;28;20231;-18
2022/03/04 12:30:18;;;;;;;9.43;7.10;;;;;;;;;;5050920;28;20281;-18
2022/03/04 12:32:45;;;;;;;11.07;7.80;;;;;;;;;;5050738;28;20229;-18
2022/03/04 12:35:12;;;;;;;11.03;7.50;;;;;;;;;;5050243;28;20265;-18
2022/03/04 12:37:39;;;;;;;10.10;7.37;;;;;;;;;;5050245;28;20226;-19
2022/03/04 12:40:08;;;;;;;9.03;7.00;;;;;;;;;;5050319;28;20236;-18
2022/03/04 12:42:35;;;;;;;11.30;7.57;;;;;;;;;;5051475;28;20957;-18
2022/03/04 12:45:02;;;;;;;9.07;7.10;;;;;;;;;;5054362;28;20241;-18
2022/03/04 12:47:29;;;;;;;9.53;6.73;;;;;;;;;;5037206;28;20230;-18
2022/03/04 12:49:57;;;;;;;9.37;6.83;;;;;;;;;;5054084;28;20230;-18
2022/03/04 12:52:24;;;;;;;10.03;6.70;;;;;;;;;;5054013;28;20230;-19
2022/03/04 12:54:51;;;;;;;10.10;7.20;;;;;;;;;;5053933;28;20328;-18
2022/03/04 12:57:19;;;;;;;9.40;7.20;;;;;;;;;;5054232;28;20743;-18
2022/03/04 12:59:46;;;;;;;8.53;6.50;;;;;;;;;;5053385;28;20230;-19
2022/03/04 13:02:13;;;;;;;9.17;6.73;;;;;;;;;;5053776;28;20240;-18
2022/03/04 13:04:41;;;;;;;10.50;6.40;;;;;;;;;;5054076;28;20229;-18
2022/03/04 13:07:09;;;;;;;9.33;6.80;;;;;;;;;;5053834;28;20226;-18
2022/03/04 13:09:36;;;;;;;8.47;6.73;;;;;;;;;;5053380;28;20226;-19
2022/03/04 13:12:03;;;;;;;8.67;6.53;;;;;;;;;;5053944;28;20226;-19
2022/03/04 13:14:32;;;;;;;9.30;7.00;;;;;;;;;;5053927;28;20258;-19
2022/03/04 13:16:59;;;;;;;9.73;6.90;;;;;;;;;;5053927;28;20310;-19
2022/03/04 13:19:26;;;;;;;8.27;6.47;;;;;;;;;;5053724;28;20591;-19
2022/03/04 13:21:53;;;;;;;8.47;6.33;;;;;;;;;;5053028;28;20940;-19
2022/03/04 13:24:20;;;;;;;8.77;6.40;;;;;;;;;;5053559;28;20226;-19
2022/03/04 13:26:47;;;;;;;8.73;6.03;;;;;;;;;;5053547;28;20222;-19
2022/03/04 13:29:15;;;;;;;7.33;6.17;;;;;;;;;;5052892;28;20689;-19
2022/03/04 13:31:42;;;;;;;8.33;5.70;;;;;;;;;;5052715;28;20230;-18
2022/03/04 13:34:09;;;;;;;8.43;5.97;;;;;;;;;;5053397;28;20248;-19
2022/03/04 13:36:42;;;;;;;8.23;5.63;;;;;;;;;;5053569;28;20241;-18
2022/03/04 13:39:09;;;;;;;7.70;5.63;;;;;;;;;;5053678;28;20222;-19
2022/03/04 13:41:37;;;;;;;8.87;6.20;;;;;;;;;;5053644;28;20233;-18
2022/03/04 13:44:04;;;;;;;9.10;6.67;;;;;;;;;;5052770;28;20329;-18
2022/03/04 13:46:31;;;;;;;7.37;6.00;;;;;;;;;;5052927;28;20234;-18
2022/03/04 13:48:58;;;;;;;7.93;5.43;;;;;;;;;;5052882;28;20234;-18
2022/03/04 13:51:25;;;;;;;9.53;5.90;;;;;;;;;;5053151;28;20226;-19
2022/03/04 13:53:52;;;;;;;7.70;6.00;;;;;;;;;;5057577;28;20233;-18
2022/03/04 13:56:19;;;;;;;9.33;6.07;;;;;;;;;;5073326;28;20730;-18
2022/03/04 13:58:46;;;;;;;8.50;5.77;;;;;;;;;;5073267;28;20236;-18
2022/03/04 14:01:13;;;;;;;8.37;5.60;;;;;;;;;;5063550;28;20814;-19
2022/03/04 14:03:41;;;;;;;7.43;5.83;;;;;;;;;;5052729;28;20234;-18
2022/03/04 14:06:08;;;;;;;9.10;5.70;;;;;;;;;;5052671;28;20231;-19
2022/03/04 14:08:35;;;;;;;8.13;5.67;;;;;;;;;;5052898;28;20230;-18
2022/03/04 14:11:02;;;;;;;7.37;5.63;;;;;;;;;;5052646;28;20226;-18
2022/03/04 14:13:29;;;;;;;6.57;5.27;;;;;;;;;;5053067;28;20222;-19
2022/03/04 14:15:57;;;;;;;6.37;4.97;;;;;;;;;;5052452;28;20250;-19
2022/03/04 14:18:25;;;;;;;8.53;5.80;;;;;;;;;;5052192;28;20242;-18
2022/03/04 14:20:52;;;;;;;7.20;5.63;;;;;;;;;;5051163;28;20249;-18
2022/03/04 14:23:19;;;;;;;7.90;5.63;;;;;;;;;;5052006;28;20246;-19
2022/03/04 14:25:46;;;;;;;8.27;5.83;;;;;;;;;;5052498;28;20225;-19
2022/03/04 14:28:13;;;;;;;6.83;5.23;;;;;;;;;;5052367;28;20237;-18
2022/03/04 14:30:40;;;;;;;7.70;5.40;;;;;;;;;;5052130;28;20230;-19
2022/03/04 14:33:09;;;;;;;8.77;5.03;;;;;;;;;;5052424;28;20736;-19
2022/03/04 14:35:36;;;;;;;6.90;5.17;;;;;;;;;;5052330;28;20242;-18
2022/03/04 14:38:03;;;;;;;6.97;5.47;;;;;;;;;;5051628;28;20230;-18